Aérodrome :
LOGIN :

S'inscrire | Disclaimer

   EN    FR    IT 

 










Légende :    VFR   VFR Marginal   IFR   IFR Intensif   IFR Très Intensif
Visi : 
Plafond : 
>= 8 km
>= 3000ft
5 à 8 km
1000 à 3000 ft
1500m à 5 km
500 à 1000 ft
800 à 1500m
200 à 500 ft
< 800m
< 200 ft
Symboles :   Orages  Brouillard  Fortes neiges  Fortes précipitations  Vent > 20 kt
SIGMETs :   Divers  Orages  Givrage  Turbulence  Onde Orograph.  Cendres Volcan.







- Altitude de l'aérodrome : 63 ft
- Code IATA : BZM


EHWO - Woensdrecht Airbase

DERNIER METAR :
  • 261125Z AUTO 27010KT 230V300 9999 FEW045 OVC049 09/04 Q1033 BLU 30009KT 9999 SCT020 SCT045

METARs EXPIRÉS :
  • 261056Z AUTO 27009KT 210V300 9999 FEW020 SCT028 BKN035 09/04 Q1033 BLU 30009KT 9999 SCT020 SCT045
  • 261039Z AUTO 28009KT 230V310 9999 FEW020 BKN025 OVC028 09/04 Q1033 BLU 30009KT 9999 SCT020 SCT045
  • 261025Z AUTO 28009KT 230V330 9999 FEW020 SCT027 BKN032 09/04 Q1033 BLU 30009KT 9999 SCT020 SCT045
  • 261016Z AUTO 29009KT 240V320 9999 FEW017 SCT020 BKN026 09/04 Q1033 WHT 31008KT 9999 SCT020 SCT045
  • 261010Z AUTO 30007KT 240V010 9999 FEW021 SCT024 BKN028 09/03 Q1033 WHT 31008KT 9999 SCT020 SCT045
  • 260955Z AUTO 30008KT 240V360 9999 FEW020 SCT024 OVC048 09/03 Q1033 WHT 31008KT 9999 SCT018 SCT050 BECMG SCT022 SCT050
  • 260938Z AUTO 30008KT 240V330 9999 FEW023 SCT026 BKN029 08/04 Q1033 BLU 31008KT 9999 SCT018 SCT050 BECMG SCT022 SCT050
  • 260929Z AUTO 29008KT 240V340 9999 FEW018 SCT025 BKN033 08/03 Q1033 BLU 31008KT 9999 SCT018 SCT050 BECMG SCT022 SCT050
  • 260916Z AUTO 29008KT 240V010 9999 SCT018 BKN022 OVC026 08/03 Q1032 WHT 31008KT 9999 SCT018 SCT050 BECMG SCT022 SCT050
  • 260855Z AUTO 29008KT 240V350 9999 SCT053 OVC100 08/03 Q1032 BLU 31008KT 9999 SCT018

TAF TAF EHWO
Valide du 26 à 10h jusqu'au 26 à 22h UTC


260921Z 2610/2622 29008KT 9999 SCT018 BKN050
BECMG 2610/2612 SCT030
PROB40 2621/2622 4000 BR
Pas de NOTAMs connus pour ce terrain.



MET'MAP, la Météo Aéronautique d'un coup d'oeil ! - Copyright ORBIFLY Décembre 2007 - Disclaimer

ORBIFLY MET'MAP TEAM :

Programmation & Développement : Alexandra Zaïnal
Conception & Développement : Baudouin d'Aumeries
Co-Programmation & Développement : Marc-Olivier Méhu
Soutien technique & logistique : Manuel Goepfert

Contact : metmap@orbifly.com




SOURCES & CREDITS :

   NOAA